RPLL/MNL METAR and TAF weather

Enter ICAO airport designator
Station Type Date Time Source
RPLL METAR 2020/01/20 10:00 UTC NOAA

RPLL 201000Z 11008KT 070V140 9999 FEW023 27/22 Q1015 NOSIG RMK A2997


Station Type Date Time Source
RPLL Decoded METAR 2020/01/20 10:00 UTC NOAA

Ninoy Aquino Inter-National Airport, Philippines (RPLL) 14-31N 121-00E 15M
Jan 20, 2020 - 05:00 AM EST / 2020.01.20 1000 UTC
Wind: from the ESE (110 degrees) at 9 MPH (8 KT) (direction variable):0
Visibility: greater than 7 mile(s):0
Sky conditions: mostly clear
Temperature: 80 F (27 C)
Dew Point: 71 F (22 C)
Relative Humidity: 74%
Pressure (altimeter): 29.97 in. Hg (1015 hPa)
ob: RPLL 201000Z 11008KT 070V140 9999 FEW023 27/22 Q1015 NOSIG RMK A2997
cycle: 10

Station Type Date Time Source
RPLL TAF 2020/01/20 06:03 UTC NOAA

TAF RPLL 200500Z 2006/2112 10008KT 9999 FEW025 SCT100 TX31/2006Z TN25/2021Z
TEMPO 2006/2012 12014KT SCT023 BKN100
TEMPO 2012/2018 14006KT FEW030

Example: see airport list